createdAt,value
2018-03-18T00:01:07.176Z,8.50
2018-03-18T00:03:36.455Z,6.50
2018-03-18T00:06:05.854Z,6.47
2018-03-18T00:08:35.126Z,6.73
2018-03-18T00:11:04.376Z,6.20
2018-03-18T00:13:33.726Z,7.17
2018-03-18T00:16:03.005Z,8.23
2018-03-18T00:18:33.064Z,7.93
2018-03-18T00:21:02.313Z,7.43
2018-03-18T00:23:31.578Z,7.50
2018-03-18T00:26:00.866Z,8.40
2018-03-18T00:28:30.115Z,7.00
2018-03-18T00:31:00.838Z,8.97
2018-03-18T00:33:30.095Z,8.80
2018-03-18T00:35:59.380Z,7.53
2018-03-18T00:38:28.670Z,7.77
2018-03-18T00:40:57.931Z,7.43
2018-03-18T00:43:27.346Z,7.70
2018-03-18T00:45:56.641Z,8.00
2018-03-18T00:48:25.937Z,4.23
2018-03-18T00:50:55.254Z,8.50
2018-03-18T00:53:24.542Z,8.63
2018-03-18T00:55:53.799Z,8.70
2018-03-18T00:58:23.066Z,8.30
2018-03-18T01:00:52.337Z,8.63
2018-03-18T01:03:21.619Z,7.80
2018-03-18T01:05:50.893Z,8.20
2018-03-18T01:08:20.152Z,6.50
2018-03-18T01:10:49.639Z,8.73
2018-03-18T01:13:18.906Z,9.93
2018-03-18T01:15:48.256Z,9.47
2018-03-18T01:18:17.506Z,9.00
2018-03-18T01:20:46.858Z,8.63
2018-03-18T01:23:16.114Z,9.00
2018-03-18T01:25:45.400Z,7.97
2018-03-18T01:28:14.904Z,9.03
2018-03-18T01:30:44.160Z,7.90
2018-03-18T01:33:13.454Z,8.17
2018-03-18T01:35:42.750Z,9.73
2018-03-18T01:38:12.022Z,7.47
2018-03-18T01:40:41.296Z,7.63
2018-03-18T01:43:11.533Z,8.37
2018-03-18T01:45:40.759Z,4.23
2018-03-18T01:48:10.528Z,8.47
2018-03-18T01:50:39.801Z,7.53
2018-03-18T01:53:24.774Z,9.40
2018-03-18T01:55:54.043Z,8.30
2018-03-18T01:58:23.285Z,8.00
2018-03-18T02:00:52.634Z,8.13
2018-03-18T02:03:21.927Z,8.30
2018-03-18T02:05:51.510Z,8.10
2018-03-18T02:08:21.806Z,8.17
2018-03-18T02:10:51.084Z,7.47
2018-03-18T02:13:20.398Z,8.27
2018-03-18T02:15:50.504Z,9.43
2018-03-18T02:18:19.794Z,8.40
2018-03-18T02:20:49.045Z,8.00
2018-03-18T02:23:18.349Z,9.83
2018-03-18T02:25:47.649Z,8.77
2018-03-18T02:28:16.910Z,9.37
2018-03-18T02:30:46.181Z,8.03
2018-03-18T02:33:15.443Z,8.53
2018-03-18T02:35:44.757Z,8.13
2018-03-18T02:38:14.847Z,7.87
2018-03-18T02:40:44.166Z,10.23
2018-03-18T02:43:13.405Z,8.63
2018-03-18T02:45:42.670Z,7.77
2018-03-18T02:48:13.445Z,7.80
2018-03-18T02:50:42.725Z,8.47
2018-03-18T02:53:12.044Z,8.37
2018-03-18T02:55:41.297Z,8.53
2018-03-18T02:58:10.577Z,8.37
2018-03-18T03:00:39.828Z,8.80
2018-03-18T03:03:09.883Z,7.87
2018-03-18T03:05:39.162Z,9.00
2018-03-18T03:08:08.458Z,8.10
2018-03-18T03:10:37.756Z,6.90
2018-03-18T03:13:07.012Z,9.27
2018-03-18T03:15:36.315Z,8.63
2018-03-18T03:18:05.559Z,7.93
2018-03-18T03:20:35.615Z,8.40
2018-03-18T03:23:04.872Z,6.67
2018-03-18T03:25:34.294Z,8.20
2018-03-18T03:28:03.779Z,7.70
2018-03-18T03:30:33.036Z,7.73
2018-03-18T03:33:02.321Z,7.27
2018-03-18T03:35:31.583Z,6.53
2018-03-18T03:38:00.867Z,7.97
2018-03-18T03:40:30.164Z,7.90
2018-03-18T03:42:59.418Z,6.90
2018-03-18T03:45:28.738Z,6.93
2018-03-18T03:47:58.010Z,7.27
2018-03-18T03:50:28.023Z,7.80
2018-03-18T03:52:57.285Z,4.80
2018-03-18T03:55:26.570Z,6.90
2018-03-18T03:57:55.812Z,7.17
2018-03-18T04:00:25.858Z,8.17
2018-03-18T04:02:55.143Z,6.33
2018-03-18T04:05:24.462Z,8.90
2018-03-18T04:07:53.741Z,4.77
2018-03-18T04:10:23.021Z,7.90
2018-03-18T04:12:52.478Z,7.17
2018-03-18T04:15:21.979Z,5.90
2018-03-18T04:17:51.996Z,7.00
2018-03-18T04:20:21.280Z,6.83
2018-03-18T04:22:50.559Z,8.30
2018-03-18T04:25:20.596Z,7.10
2018-03-18T04:27:50.639Z,7.40
2018-03-18T04:30:19.894Z,6.20
2018-03-18T04:32:49.171Z,6.60
2018-03-18T04:35:18.630Z,6.20
2018-03-18T04:37:48.111Z,8.37
2018-03-18T04:40:17.365Z,6.10
2018-03-18T04:42:46.646Z,7.80
2018-03-18T04:45:15.909Z,5.43
2018-03-18T04:47:45.199Z,6.27
2018-03-18T04:50:14.473Z,6.33
2018-03-18T04:52:44.515Z,6.40
2018-03-18T04:55:13.780Z,7.47
2018-03-18T04:57:43.061Z,7.57
2018-03-18T05:00:12.502Z,7.97
2018-03-18T05:02:41.797Z,6.27
2018-03-18T05:05:11.245Z,6.70
2018-03-18T05:07:41.296Z,5.03
2018-03-18T05:10:10.572Z,5.80
2018-03-18T05:12:39.856Z,7.30
2018-03-18T05:15:09.184Z,6.30
2018-03-18T05:17:38.436Z,5.90
2018-03-18T05:20:07.731Z,6.97
2018-03-18T05:22:37.182Z,6.47
2018-03-18T05:25:07.246Z,7.17
2018-03-18T05:27:36.539Z,5.93
2018-03-18T05:30:05.811Z,4.87
2018-03-18T05:32:35.062Z,6.40
2018-03-18T05:35:04.359Z,7.87
2018-03-18T05:37:33.609Z,6.20
2018-03-18T05:40:03.657Z,4.87
2018-03-18T05:42:32.938Z,6.10
2018-03-18T05:45:02.212Z,5.93
2018-03-18T05:47:31.534Z,5.90
2018-03-18T05:50:00.809Z,6.63
2018-03-18T05:52:30.078Z,6.80
2018-03-18T05:54:59.378Z,6.83
2018-03-18T05:57:28.708Z,7.60
2018-03-18T05:59:58.062Z,6.07
2018-03-18T06:02:27.319Z,7.87
2018-03-18T06:04:56.610Z,5.97
2018-03-18T06:07:25.899Z,6.60
2018-03-18T06:09:55.176Z,6.57
2018-03-18T06:12:25.077Z,6.60
2018-03-18T06:14:54.372Z,6.00
2018-03-18T06:17:24.410Z,5.70
2018-03-18T06:19:53.720Z,5.73
2018-03-18T06:22:23.012Z,6.20
2018-03-18T06:24:52.417Z,5.83
2018-03-18T06:27:21.595Z,4.87
2018-03-18T06:29:51.010Z,7.03
2018-03-18T06:32:20.258Z,5.67
2018-03-18T06:34:49.582Z,3.30
2018-03-18T06:37:19.655Z,5.83
2018-03-18T06:39:48.985Z,6.73
2018-03-18T06:42:18.238Z,7.00
2018-03-18T06:44:47.554Z,6.30
2018-03-18T06:47:16.958Z,4.90
2018-03-18T06:49:46.247Z,6.27
2018-03-18T06:52:15.532Z,3.97
2018-03-18T06:54:44.831Z,5.70
2018-03-18T06:57:14.098Z,4.30
2018-03-18T06:59:43.356Z,4.43
2018-03-18T07:02:12.636Z,5.47
2018-03-18T07:04:41.885Z,5.30
2018-03-18T07:07:11.144Z,5.90
2018-03-18T07:09:40.441Z,5.63
2018-03-18T07:12:09.775Z,5.20
2018-03-18T07:14:39.056Z,5.30
2018-03-18T07:17:08.326Z,6.07
2018-03-18T07:19:38.356Z,5.63
2018-03-18T07:22:07.681Z,4.60
2018-03-18T07:24:36.920Z,4.67
2018-03-18T07:27:06.249Z,6.10
2018-03-18T07:29:35.715Z,6.70
2018-03-18T07:32:04.981Z,7.30
2018-03-18T07:34:34.268Z,4.90
2018-03-18T07:37:03.623Z,5.13
2018-03-18T07:39:32.931Z,5.27
2018-03-18T07:42:02.251Z,5.80
2018-03-18T07:44:31.451Z,6.20
2018-03-18T07:47:01.503Z,5.77
2018-03-18T07:49:30.746Z,5.90
2018-03-18T07:52:00.048Z,4.50
2018-03-18T07:54:29.291Z,4.90
2018-03-18T07:56:59.318Z,6.13
2018-03-18T07:59:28.633Z,6.33
2018-03-18T08:01:57.913Z,5.70
2018-03-18T08:04:27.370Z,5.40
2018-03-18T08:06:56.707Z,6.20
2018-03-18T08:09:26.007Z,6.03
2018-03-18T08:11:55.302Z,6.57
2018-03-18T08:14:24.541Z,5.47
2018-03-18T08:16:53.815Z,4.60
2018-03-18T08:19:23.862Z,6.07
2018-03-18T08:21:53.217Z,6.10
2018-03-18T08:24:22.550Z,5.30
2018-03-18T08:26:52.587Z,3.57
2018-03-18T08:29:21.936Z,5.37
2018-03-18T08:31:51.199Z,6.03
2018-03-18T08:34:20.465Z,5.17
2018-03-18T08:36:50.836Z,5.53
2018-03-18T08:39:20.117Z,5.53
2018-03-18T08:41:49.368Z,4.90
2018-03-18T08:44:18.610Z,6.73
2018-03-18T08:46:47.864Z,4.63
2018-03-18T08:49:17.130Z,3.50
2018-03-18T08:51:46.391Z,4.77
2018-03-18T08:54:15.665Z,2.50
2018-03-18T08:56:44.971Z,4.80
2018-03-18T08:59:14.277Z,5.57
2018-03-18T09:01:43.570Z,5.70
2018-03-18T09:04:12.841Z,5.67
2018-03-18T09:06:42.417Z,4.10
2018-03-18T09:09:11.863Z,5.00
2018-03-18T09:11:41.132Z,5.20
2018-03-18T09:14:10.391Z,4.37
2018-03-18T09:16:39.673Z,6.27
2018-03-18T09:19:09.073Z,4.00
2018-03-18T09:21:38.562Z,6.33
2018-03-18T09:24:07.845Z,4.13
2018-03-18T09:26:37.106Z,5.20
2018-03-18T09:29:06.457Z,4.53
2018-03-18T09:31:35.703Z,5.33
2018-03-18T09:34:04.984Z,4.47
2018-03-18T09:36:34.269Z,4.77
2018-03-18T09:39:03.533Z,4.57
2018-03-18T09:41:32.810Z,4.63
2018-03-18T09:44:02.242Z,4.60
2018-03-18T09:46:31.506Z,4.70
2018-03-18T09:49:00.763Z,4.33
2018-03-18T09:51:30.035Z,5.13
2018-03-18T09:53:59.382Z,4.57
2018-03-18T09:56:29.497Z,4.93
2018-03-18T09:58:58.686Z,5.30
2018-03-18T10:01:27.932Z,4.73
2018-03-18T10:03:57.197Z,6.47
2018-03-18T10:06:26.439Z,4.97
2018-03-18T10:08:55.699Z,4.90
2018-03-18T10:11:25.150Z,5.00
2018-03-18T10:13:54.402Z,5.10
2018-03-18T10:16:23.677Z,5.03
2018-03-18T10:18:52.922Z,4.70
2018-03-18T10:21:22.176Z,4.83
2018-03-18T10:23:51.431Z,5.27
2018-03-18T10:26:20.802Z,7.00
2018-03-18T10:28:50.073Z,5.60
2018-03-18T10:31:19.638Z,5.00
2018-03-18T10:33:49.023Z,3.50
2018-03-18T10:36:18.288Z,5.60
2018-03-18T10:38:47.608Z,5.23
2018-03-18T10:41:16.909Z,5.57
2018-03-18T10:43:46.144Z,4.60
2018-03-18T10:46:15.435Z,7.67
2018-03-18T10:48:44.755Z,6.83
2018-03-18T10:51:13.968Z,5.30
2018-03-18T10:53:43.208Z,4.83
2018-03-18T10:56:12.465Z,4.77
2018-03-18T10:58:41.705Z,5.77
2018-03-18T11:04:17.690Z,4.23
2018-03-18T11:06:47.242Z,2.30
2018-03-18T11:09:17.367Z,6.57
2018-03-18T11:11:46.605Z,5.07
2018-03-18T11:14:15.964Z,5.13
2018-03-18T11:16:45.226Z,5.47
2018-03-18T11:19:14.466Z,5.13
2018-03-18T11:21:43.774Z,4.50
2018-03-18T11:24:13.013Z,4.73
2018-03-18T11:26:42.274Z,4.23
2018-03-18T11:29:11.541Z,5.70
2018-03-18T11:31:40.789Z,7.23
2018-03-18T11:34:10.100Z,5.80
2018-03-18T11:36:39.374Z,7.20
2018-03-18T11:39:09.086Z,7.03
2018-03-18T11:41:38.347Z,6.40
2018-03-18T11:44:07.633Z,6.00
2018-03-18T11:46:36.887Z,5.60
2018-03-18T11:49:06.897Z,5.40
2018-03-18T11:51:36.158Z,5.10
2018-03-18T11:54:05.591Z,5.00
2018-03-18T11:56:35.610Z,6.03
2018-03-18T11:59:04.870Z,7.33
2018-03-18T12:01:34.213Z,4.57
2018-03-18T12:04:03.650Z,5.87
2018-03-18T12:06:33.667Z,13.73
2018-03-18T12:09:02.970Z,6.10
2018-03-18T12:11:33.019Z,5.30
2018-03-18T12:14:02.268Z,6.50
2018-03-18T12:16:31.554Z,5.70
2018-03-18T12:19:01.580Z,5.93
2018-03-18T12:21:30.869Z,6.50
2018-03-18T12:24:01.705Z,6.10
2018-03-18T12:26:30.940Z,4.63
2018-03-18T12:29:00.194Z,4.60
2018-03-18T12:31:29.615Z,6.63
2018-03-18T12:33:59.629Z,5.23
2018-03-18T12:36:28.886Z,6.20
2018-03-18T12:38:58.178Z,4.67
2018-03-18T12:41:27.529Z,4.83
2018-03-18T12:43:56.810Z,6.27
2018-03-18T12:46:26.239Z,5.73
2018-03-18T12:48:55.606Z,2.40
2018-03-18T12:51:24.877Z,5.40
2018-03-18T12:53:54.116Z,5.80
2018-03-18T12:56:23.414Z,6.10
2018-03-18T12:58:53.008Z,7.33
2018-03-18T13:01:22.341Z,5.87
2018-03-18T13:03:51.646Z,5.00
2018-03-18T13:06:20.921Z,5.63
2018-03-18T13:08:50.261Z,5.20
2018-03-18T13:11:19.769Z,4.93
2018-03-18T13:13:49.255Z,6.17
2018-03-18T13:16:18.546Z,6.40
2018-03-18T13:18:48.668Z,5.50
2018-03-18T13:21:17.964Z,5.73
2018-03-18T13:23:48.107Z,6.67
2018-03-18T13:26:17.351Z,5.53
2018-03-18T13:28:46.625Z,6.13
2018-03-18T13:31:16.691Z,5.93
2018-03-18T13:33:45.971Z,6.43
2018-03-18T13:36:15.297Z,4.60
2018-03-18T13:38:44.582Z,5.33
2018-03-18T13:41:13.890Z,6.80
2018-03-18T13:43:43.135Z,5.27
2018-03-18T13:46:12.419Z,5.47
2018-03-18T13:48:41.706Z,5.37
2018-03-18T13:51:11.027Z,5.40
2018-03-18T13:53:40.274Z,5.07
2018-03-18T13:56:09.597Z,5.20
2018-03-18T13:58:38.852Z,5.73
2018-03-18T14:01:08.136Z,6.03
2018-03-18T14:03:37.458Z,4.77
2018-03-18T14:06:07.488Z,4.20
2018-03-18T14:08:36.731Z,4.87
2018-03-18T14:11:05.973Z,5.40
2018-03-18T14:13:35.317Z,5.47
2018-03-18T14:16:04.590Z,4.63
2018-03-18T14:18:34.643Z,6.00
2018-03-18T14:21:03.960Z,5.27
2018-03-18T14:23:33.180Z,5.83
2018-03-18T14:26:02.795Z,5.47
2018-03-18T14:28:32.056Z,6.13
2018-03-18T14:31:01.337Z,7.23
2018-03-18T14:33:31.102Z,6.97
2018-03-18T14:36:00.370Z,5.10
2018-03-18T14:38:29.634Z,4.60
2018-03-18T14:40:58.891Z,5.63
2018-03-18T14:43:28.192Z,5.40
2018-03-18T14:45:57.473Z,5.53
2018-03-18T14:48:26.681Z,5.07
2018-03-18T14:50:56.008Z,6.67
2018-03-18T14:53:25.229Z,4.97
2018-03-18T14:55:54.493Z,5.30
2018-03-18T14:58:23.816Z,5.20
2018-03-18T15:00:53.036Z,4.77
2018-03-18T15:03:23.061Z,4.43
2018-03-18T15:05:52.329Z,4.70
2018-03-18T15:08:21.585Z,4.20
2018-03-18T15:10:50.809Z,3.90
2018-03-18T15:13:20.796Z,5.20
2018-03-18T15:15:50.112Z,5.47
2018-03-18T15:18:19.456Z,4.53
2018-03-18T15:20:48.687Z,4.60
2018-03-18T15:23:18.205Z,4.83
2018-03-18T15:25:47.441Z,5.67
2018-03-18T15:28:16.727Z,4.63
2018-03-18T15:30:45.996Z,5.43
2018-03-18T15:33:15.458Z,3.93
2018-03-18T15:35:44.722Z,4.80
2018-03-18T15:38:13.971Z,5.10
2018-03-18T15:40:43.256Z,3.43
2018-03-18T15:43:12.547Z,4.73
2018-03-18T15:45:41.786Z,4.90
2018-03-18T15:48:11.056Z,4.00
2018-03-18T15:50:40.366Z,4.10
2018-03-18T15:53:09.625Z,4.83
2018-03-18T15:55:39.559Z,4.00
2018-03-18T15:58:08.722Z,4.33
2018-03-18T16:00:37.981Z,4.43
2018-03-18T16:03:07.244Z,4.83
2018-03-18T16:05:37.307Z,4.03
2018-03-18T16:08:06.562Z,5.20
2018-03-18T16:10:35.805Z,4.73
2018-03-18T16:13:05.079Z,4.70
2018-03-18T16:15:34.346Z,4.40
2018-03-18T16:18:04.369Z,5.43
2018-03-18T16:20:33.625Z,5.13
2018-03-18T16:23:02.893Z,3.30
2018-03-18T16:25:32.125Z,3.63
2018-03-18T16:28:01.421Z,4.23
2018-03-18T16:30:48.355Z,4.20
2018-03-18T16:33:17.634Z,5.33
2018-03-18T16:35:47.455Z,4.50
2018-03-18T16:38:16.718Z,3.60
2018-03-18T16:40:46.030Z,4.07
2018-03-18T16:43:15.311Z,3.67
2018-03-18T16:45:44.547Z,3.40
2018-03-18T16:48:13.851Z,4.73
2018-03-18T16:50:43.374Z,3.50
2018-03-18T16:53:12.646Z,3.50
2018-03-18T16:55:41.912Z,4.90
2018-03-18T16:58:11.206Z,4.60
2018-03-18T17:00:40.633Z,4.20
2018-03-18T17:03:09.917Z,3.57
2018-03-18T17:05:39.173Z,2.60
2018-03-18T17:08:08.471Z,2.93
2018-03-18T17:10:37.775Z,3.30
2018-03-18T17:13:07.041Z,3.10
2018-03-18T17:15:36.897Z,3.90
2018-03-18T17:18:06.170Z,2.97
2018-03-18T17:20:35.418Z,4.30
2018-03-18T17:23:05.454Z,3.73
2018-03-18T17:25:34.941Z,4.07
2018-03-18T17:28:04.166Z,3.90
2018-03-18T17:30:33.429Z,3.63
2018-03-18T17:33:02.728Z,4.07
2018-03-18T17:35:32.014Z,4.10
2018-03-18T17:38:01.273Z,3.43
2018-03-18T17:40:30.647Z,3.20
2018-03-18T17:42:59.887Z,4.37
2018-03-18T17:45:47.038Z,4.03
2018-03-18T17:48:34.063Z,2.73
2018-03-18T17:51:20.962Z,2.73
2018-03-18T17:54:07.794Z,3.20
2018-03-18T17:56:37.825Z,4.20
2018-03-18T17:59:07.077Z,4.20
2018-03-18T18:01:36.414Z,3.70
2018-03-18T18:04:06.143Z,4.13
2018-03-18T18:06:35.582Z,4.23
2018-03-18T18:09:04.896Z,3.40
2018-03-18T18:11:34.180Z,3.40
2018-03-18T18:14:03.432Z,3.50
2018-03-18T18:16:32.744Z,4.07
2018-03-18T18:19:02.002Z,3.93
2018-03-18T18:21:31.419Z,3.20
2018-03-18T18:24:00.674Z,3.40
2018-03-18T18:26:30.059Z,3.23
2018-03-18T18:29:00.162Z,2.80
2018-03-18T18:31:29.456Z,2.70
2018-03-18T18:33:58.751Z,3.50
2018-03-18T18:36:27.996Z,3.27
2018-03-18T18:38:57.258Z,3.13
2018-03-18T18:41:26.512Z,3.97
2018-03-18T18:43:57.282Z,4.07
2018-03-18T18:46:26.565Z,3.13
2018-03-18T18:48:55.803Z,2.20
2018-03-18T18:51:25.049Z,3.83
2018-03-18T18:53:54.324Z,3.73
2018-03-18T18:56:23.657Z,3.90
2018-03-18T18:58:54.005Z,3.47
2018-03-18T19:01:23.267Z,4.50
2018-03-18T19:03:52.583Z,4.07
2018-03-18T19:06:21.845Z,4.10
2018-03-18T19:08:51.104Z,4.37
2018-03-18T19:11:20.752Z,3.10
2018-03-18T19:13:50.847Z,4.20
2018-03-18T19:16:20.182Z,3.23
2018-03-18T19:18:50.608Z,3.73
2018-03-18T19:21:19.851Z,3.30
2018-03-18T19:23:49.308Z,3.43
2018-03-18T19:26:20.173Z,4.20
2018-03-18T19:28:49.455Z,3.70
2018-03-18T19:31:19.700Z,4.30
2018-03-18T19:33:48.989Z,3.60
2018-03-18T19:36:18.273Z,2.80
2018-03-18T19:38:47.803Z,3.37
2018-03-18T19:41:17.071Z,3.40
2018-03-18T19:43:46.539Z,3.73
2018-03-18T19:46:15.839Z,3.70
2018-03-18T19:48:45.115Z,2.87
2018-03-18T19:51:15.154Z,3.03
2018-03-18T19:53:44.438Z,3.53
2018-03-18T19:56:14.155Z,4.03
2018-03-18T19:58:43.410Z,4.60
2018-03-18T20:01:12.694Z,4.50
2018-03-18T20:03:41.975Z,3.73
2018-03-18T20:06:12.953Z,3.90
2018-03-18T20:08:42.278Z,3.73
2018-03-18T20:11:12.091Z,3.70
2018-03-18T20:13:41.402Z,5.30
2018-03-18T20:16:12.381Z,3.53
2018-03-18T20:18:41.730Z,4.87
2018-03-18T20:21:11.046Z,3.67
2018-03-18T20:23:40.330Z,3.53
2018-03-18T20:26:10.527Z,3.37
2018-03-18T20:28:39.943Z,4.40
2018-03-18T20:31:09.203Z,3.23
2018-03-18T20:33:38.500Z,3.10
2018-03-18T20:36:07.894Z,3.57
2018-03-18T20:38:37.155Z,2.30
2018-03-18T20:41:06.476Z,2.90
2018-03-18T20:43:35.789Z,2.80
2018-03-18T20:46:05.078Z,3.27
2018-03-18T20:48:34.428Z,4.10
2018-03-18T20:51:03.747Z,3.10
2018-03-18T20:53:33.003Z,3.20
2018-03-18T20:56:02.308Z,4.00
2018-03-18T20:58:31.555Z,3.00
2018-03-18T21:01:00.862Z,3.40
2018-03-18T21:03:30.252Z,3.57
2018-03-18T21:06:00.313Z,3.10
2018-03-18T21:08:29.623Z,3.17
2018-03-18T21:10:58.894Z,3.60
2018-03-18T21:13:28.254Z,3.60
2018-03-18T21:15:57.630Z,3.13
2018-03-18T21:18:26.925Z,3.07
2018-03-18T21:20:56.281Z,2.63
2018-03-18T21:23:25.584Z,4.13
2018-03-18T21:25:54.905Z,3.67
2018-03-18T21:28:24.203Z,3.70
2018-03-18T21:30:53.705Z,3.00
2018-03-18T21:33:23.163Z,3.47
2018-03-18T21:35:52.439Z,3.40
2018-03-18T21:38:22.066Z,3.80
2018-03-18T21:40:51.366Z,2.87
2018-03-18T21:43:20.631Z,4.70
2018-03-18T21:45:49.900Z,3.13
2018-03-18T21:48:19.262Z,1.73
2018-03-18T21:50:48.608Z,2.60
2018-03-18T21:53:17.870Z,3.67
2018-03-18T21:55:47.407Z,4.30
2018-03-18T21:58:16.681Z,2.67
2018-03-18T22:00:46.030Z,3.67
2018-03-18T22:03:16.096Z,2.30
2018-03-18T22:05:45.447Z,2.40
2018-03-18T22:08:15.630Z,3.70
2018-03-18T22:10:45.003Z,3.10
2018-03-18T22:13:14.327Z,2.40
2018-03-18T22:15:43.602Z,4.17
2018-03-18T22:18:13.064Z,3.20
2018-03-18T22:20:42.438Z,3.40
2018-03-18T22:23:11.892Z,3.00
2018-03-18T22:25:41.187Z,3.93
2018-03-18T22:28:11.103Z,3.13
2018-03-18T22:30:40.426Z,3.20
2018-03-18T22:33:09.739Z,2.30
2018-03-18T22:35:39.002Z,2.80
2018-03-18T22:38:08.353Z,3.73
2018-03-18T22:40:37.671Z,2.50
2018-03-18T22:43:06.909Z,2.47
2018-03-18T22:45:36.954Z,3.27
2018-03-18T22:48:06.238Z,3.70
2018-03-18T22:50:36.279Z,3.10
2018-03-18T22:53:05.536Z,2.10
2018-03-18T22:55:34.823Z,3.60
2018-03-18T22:58:04.080Z,2.87
2018-03-18T23:00:33.372Z,3.30
2018-03-18T23:03:02.722Z,3.33
2018-03-18T23:05:31.985Z,3.67
2018-03-18T23:08:01.288Z,3.30
2018-03-18T23:10:30.577Z,4.67
2018-03-18T23:13:00.799Z,3.70
2018-03-18T23:15:30.056Z,3.57
2018-03-18T23:17:59.306Z,2.90
2018-03-18T23:20:28.581Z,3.20
2018-03-18T23:22:58.615Z,3.23
2018-03-18T23:25:27.896Z,3.13
2018-03-18T23:27:57.167Z,3.80
2018-03-18T23:30:26.425Z,3.20
2018-03-18T23:32:55.693Z,3.20
2018-03-18T23:35:25.117Z,4.70
2018-03-18T23:37:54.404Z,3.40
2018-03-18T23:40:23.699Z,2.77
2018-03-18T23:42:52.966Z,4.40
2018-03-18T23:45:22.219Z,1.23
2018-03-18T23:47:52.289Z,4.00
2018-03-18T23:50:21.575Z,3.57
2018-03-18T23:52:50.832Z,4.00
2018-03-18T23:55:20.093Z,3.50
2018-03-18T23:57:49.523Z,4.47
